Time;durP1;ratioP1;P1;durP2;ratioP2;P2;SDS_P1;SDS_P2;PMS_P1;PMS_P2;Temp;Humidity;BMP_temperature;BMP_pressure;BME280_temperature;BME280_humidity;BME280_pressure;Samples;Min_cycle;Max_cycle;Signal;HPM_P1;HPM_P2
2022/10/25 00:01:56;;;;;;;6.70;2.92;;;;;;;11.75;100.00;98957.72;5070298;28;20057;-69
2022/10/25 00:04:41;;;;;;;4.60;2.28;;;;;;;11.83;100.00;98955.41;5044571;28;20041;-68
2022/10/25 00:07:26;;;;;;;5.65;2.22;;;;;;;11.96;100.00;98954.53;5055753;28;20385;-67
2022/10/25 00:10:10;;;;;;;4.72;2.10;;;;;;;12.08;100.00;98952.84;5069460;28;20057;-68
2022/10/25 00:12:55;;;;;;;4.00;2.17;;;;;;;12.14;100.00;98952.38;5044521;28;20100;-69
2022/10/25 00:15:40;;;;;;;3.22;1.90;;;;;;;12.16;100.00;98963.63;5044739;28;20132;-68
2022/10/25 00:18:24;;;;;;;6.72;1.83;;;;;;;12.17;100.00;98956.59;5043502;28;20040;-68
2022/10/25 00:21:09;;;;;;;2.03;1.52;;;;;;;12.22;100.00;98964.16;5040845;28;20044;-70
2022/10/25 00:23:54;;;;;;;2.63;1.67;;;;;;;12.23;100.00;98931.66;5042480;28;20052;-70
2022/10/25 00:26:41;;;;;;;3.65;1.60;;;;;;;12.25;100.00;98929.78;5042208;28;20041;-68
2022/10/25 00:29:26;;;;;;;3.42;1.67;;;;;;;12.24;100.00;98939.44;5055071;28;21917;-67
2022/10/25 00:32:10;;;;;;;3.92;2.30;;;;;;;12.25;100.00;98937.66;5043275;28;20068;-67
2022/10/25 00:34:55;;;;;;;3.63;2.13;;;;;;;12.25;100.00;98950.78;5071042;28;20214;-67
2022/10/25 00:37:39;;;;;;;3.97;2.28;;;;;;;12.25;100.00;98940.28;5043124;28;20141;-68
2022/10/25 00:40:24;;;;;;;4.07;2.40;;;;;;;12.22;100.00;98945.75;5044012;28;20582;-68
2022/10/25 00:43:09;;;;;;;4.03;2.10;;;;;;;12.22;100.00;98956.25;5071007;28;20033;-66
2022/10/25 00:45:56;;;;;;;5.95;2.72;;;;;;;12.23;100.00;98984.19;5043363;28;20037;-68
2022/10/25 00:48:46;;;;;;;4.22;2.70;;;;;;;12.21;100.00;98986.94;5043537;28;20045;-67
2022/10/25 00:51:37;;;;;;;5.15;2.60;;;;;;;12.14;100.00;98980.47;5042929;28;20084;-69
2022/10/25 00:54:36;;;;;;;4.68;2.70;;;;;;;12.06;100.00;98960.78;5042415;28;20041;-67
2022/10/25 00:57:26;;;;;;;6.57;3.20;;;;;;;12.09;100.00;98964.19;5042368;28;20072;-67
2022/10/25 01:00:11;;;;;;;8.32;3.25;;;;;;;12.05;100.00;98972.25;5042190;28;20112;-67
2022/10/25 01:02:56;;;;;;;5.60;2.50;;;;;;;12.05;100.00;98976.66;5055526;28;20065;-68
2022/10/25 01:05:42;;;;;;;4.90;2.53;;;;;;;12.07;100.00;98969.53;5042430;28;20050;-67
2022/10/25 01:08:27;;;;;;;7.78;2.90;;;;;;;12.04;100.00;98965.34;5042274;28;20064;-71
2022/10/25 01:11:11;;;;;;;4.82;2.35;;;;;;;12.06;100.00;98968.66;5041822;28;20404;-67
2022/10/25 01:13:57;;;;;;;4.93;2.17;;;;;;;12.12;100.00;98959.56;5073880;28;20124;-68
2022/10/25 01:17:09;;;;;;;3.70;2.03;;;;;;;12.18;100.00;98950.38;5069266;28;20385;-70
2022/10/25 01:20:21;;;;;;;2.70;1.60;;;;;;;12.28;100.00;98945.31;5046504;28;20126;-70
2022/10/25 01:23:27;;;;;;;3.42;1.70;;;;;;;12.31;100.00;98952.97;5045524;28;20041;-68
2022/10/25 01:26:21;;;;;;;3.85;1.70;;;;;;;12.35;100.00;98937.81;5073897;28;20106;-67
2022/10/25 01:29:44;;;;;;;2.67;2.10;;;;;;;12.31;100.00;98950.34;5045582;28;20052;-68
2022/10/25 01:32:31;;;;;;;;;;;;;;;12.29;100.00;98957.50;5074716;28;20072;-69
2022/10/25 01:35:49;;;;;;;4.38;1.80;;;;;;;12.16;100.00;98966.25;5043801;28;19920;-69
2022/10/25 01:38:53;;;;;;;5.60;2.40;;;;;;;11.97;100.00;98945.72;5072331;28;20041;-68
2022/10/25 01:41:59;;;;;;;4.47;2.47;;;;;;;12.03;100.00;98937.38;5046693;28;20041;-69
2022/10/25 01:44:57;;;;;;;4.18;2.28;;;;;;;12.10;100.00;98932.56;5044999;28;20153;-70
2022/10/25 01:47:52;;;;;;;5.35;2.53;;;;;;;12.15;100.00;98938.31;5044685;28;20052;-68
2022/10/25 01:50:44;;;;;;;4.90;2.72;;;;;;;12.12;100.00;98935.09;5045566;28;20057;-68
2022/10/25 01:53:28;;;;;;;5.10;2.15;;;;;;;12.12;100.00;98933.31;5058335;28;20056;-66
2022/10/25 01:56:22;;;;;;;4.65;2.70;;;;;;;12.12;100.00;98924.56;5045457;28;20732;-68
2022/10/25 01:59:25;;;;;;;5.47;2.55;;;;;;;12.18;100.00;98932.84;5045305;28;20049;-67
2022/10/25 02:02:19;;;;;;;7.50;3.05;;;;;;;12.13;100.00;98939.38;5044646;28;20495;-67
2022/10/25 02:05:31;;;;;;;5.95;2.95;;;;;;;12.19;100.00;98936.31;5045629;28;20704;-70
2022/10/25 02:08:40;;;;;;;4.80;2.85;;;;;;;12.12;100.00;98940.34;5044373;28;20514;-70
2022/10/25 02:11:26;;;;;;;4.72;2.30;;;;;;;12.20;100.00;98959.00;5046859;28;20045;-70
2022/10/25 02:14:17;;;;;;;5.15;2.65;;;;;;;12.19;100.00;98955.53;5045400;28;20037;-68
2022/10/25 02:17:03;;;;;;;4.68;2.78;;;;;;;12.18;100.00;98959.13;5044680;28;20033;-67
2022/10/25 02:19:52;;;;;;;5.38;2.58;;;;;;;12.23;100.00;98955.31;5072927;28;20041;-69
2022/10/25 02:22:38;;;;;;;5.57;2.20;;;;;;;12.27;100.00;98952.34;5043918;28;20045;-69
2022/10/25 02:25:23;;;;;;;3.65;2.10;;;;;;;12.29;100.00;98954.88;5058378;28;20033;-68
2022/10/25 02:28:10;;;;;;;5.72;2.38;;;;;;;12.32;100.00;98946.78;5044969;28;20121;-68
2022/10/25 02:30:56;;;;;;;3.40;2.08;;;;;;;12.35;100.00;98956.22;5046985;28;20135;-68
2022/10/25 02:33:44;;;;;;;5.15;2.17;;;;;;;12.44;100.00;98953.75;5046105;28;20045;-69
2022/10/25 02:36:29;;;;;;;7.07;3.08;;;;;;;12.43;100.00;98952.09;5045198;28;20124;-67
2022/10/25 02:39:13;;;;;;;4.57;2.38;;;;;;;12.47;100.00;98947.41;5056917;28;20056;-71
2022/10/25 02:42:01;;;;;;;3.22;2.05;;;;;;;12.50;100.00;98956.88;5055539;28;20049;-66
2022/10/25 02:44:45;;;;;;;4.10;2.15;;;;;;;12.48;100.00;98964.03;5058464;28;20040;-68
2022/10/25 02:47:30;;;;;;;4.03;2.25;;;;;;;12.47;100.00;98962.38;5059173;28;20134;-67
2022/10/25 02:50:15;;;;;;;3.05;2.00;;;;;;;12.42;100.00;98965.34;5045846;28;20052;-67
2022/10/25 02:52:59;;;;;;;3.17;2.22;;;;;;;12.44;100.00;98968.66;5044706;28;20053;-67
2022/10/25 02:55:43;;;;;;;5.43;2.10;;;;;;;12.49;100.00;98970.94;5044512;28;20083;-66
2022/10/25 02:58:30;;;;;;;3.60;1.83;;;;;;;12.47;100.00;98962.38;5044657;28;20044;-69
2022/10/25 03:01:17;;;;;;;4.00;1.98;;;;;;;12.42;100.00;98955.63;5044759;28;21554;-67
2022/10/25 03:04:01;;;;;;;3.10;1.70;;;;;;;12.33;100.00;98953.69;5045383;28;20045;-67
2022/10/25 03:06:46;;;;;;;2.80;1.80;;;;;;;12.29;100.00;98953.06;5043753;28;20033;-69
2022/10/25 03:09:31;;;;;;;4.78;2.10;;;;;;;12.31;100.00;98955.59;5044796;28;20231;-68
2022/10/25 03:12:15;;;;;;;2.80;1.75;;;;;;;12.28;100.00;98956.66;5045781;28;20545;-69
2022/10/25 03:15:00;;;;;;;5.50;2.47;;;;;;;12.29;100.00;98958.31;5044331;28;20076;-69
2022/10/25 03:17:45;;;;;;;3.75;2.15;;;;;;;12.28;100.00;98956.66;5045548;28;20060;-67
2022/10/25 03:20:30;;;;;;;3.00;1.83;;;;;;;12.34;100.00;98952.72;5043035;28;20144;-69
2022/10/25 03:23:15;;;;;;;4.28;2.13;;;;;;;12.36;100.00;98956.09;5043943;28;20049;-68
2022/10/25 03:26:00;;;;;;;4.15;1.80;;;;;;;12.42;100.00;98960.91;5044731;28;20041;-67
2022/10/25 03:28:44;;;;;;;5.68;1.90;;;;;;;12.38;100.00;98956.84;5044483;28;20102;-67
2022/10/25 03:31:29;;;;;;;3.97;1.65;;;;;;;12.38;100.00;98959.47;5044380;28;20159;-67
2022/10/25 03:34:14;;;;;;;3.05;1.95;;;;;;;12.39;100.00;98955.88;5044802;28;20041;-66
2022/10/25 03:36:58;;;;;;;4.20;2.50;;;;;;;12.31;100.00;98955.59;5045338;28;20044;-66
2022/10/25 03:39:43;;;;;;;5.85;2.30;;;;;;;12.27;100.00;98947.09;5057828;28;20036;-68
2022/10/25 03:42:28;;;;;;;4.20;1.88;;;;;;;12.25;100.00;98954.25;5041854;28;20087;-66
2022/10/25 03:45:13;;;;;;;3.60;1.88;;;;;;;12.28;100.00;98954.03;5042979;28;20102;-67
2022/10/25 03:47:57;;;;;;;4.40;1.90;;;;;;;12.30;100.00;98959.19;5044581;28;20056;-67
2022/10/25 03:50:42;;;;;;;3.75;2.17;;;;;;;12.25;100.00;98959.50;5057642;28;20389;-66
2022/10/25 03:53:27;;;;;;;3.25;1.95;;;;;;;12.26;100.00;98966.44;5042439;28;20125;-67
2022/10/25 03:56:11;;;;;;;3.83;2.10;;;;;;;12.25;100.00;98956.88;5043435;28;20049;-69
2022/10/25 03:58:56;;;;;;;3.95;1.88;;;;;;;12.27;100.00;98957.59;5041670;28;20036;-66
2022/10/25 04:01:55;;;;;;;4.35;1.55;;;;;;;12.28;100.00;98953.19;5041546;28;20057;-68
2022/10/25 04:05:05;;;;;;;2.70;1.60;;;;;;;12.29;100.00;98954.88;5028360;28;20149;-67
2022/10/25 04:07:50;;;;;;;3.55;1.77;;;;;;;12.27;100.00;98969.91;5043263;28;20052;-55
2022/10/25 04:10:35;;;;;;;5.60;1.83;;;;;;;12.32;100.00;98971.22;5042182;28;20376;-68
2022/10/25 04:13:21;;;;;;;2.38;1.50;;;;;;;12.27;100.00;98965.47;5042414;28;20077;-67
2022/10/25 04:16:07;;;;;;;3.88;1.35;;;;;;;12.23;100.00;98964.03;5043354;28;20037;-65
2022/10/25 04:18:52;;;;;;;2.78;1.38;;;;;;;12.25;100.00;98970.03;5041368;28;20064;-67
2022/10/25 04:21:37;;;;;;;2.00;1.20;;;;;;;12.49;100.00;98974.44;5040174;28;20055;-70
2022/10/25 04:24:21;;;;;;;3.08;1.70;;;;;;;12.59;100.00;98966.69;5043000;28;20391;-70
2022/10/25 04:27:06;;;;;;;3.50;1.77;;;;;;;12.57;100.00;98964.19;5054617;28;20064;-70
2022/10/25 04:29:52;;;;;;;3.08;1.35;;;;;;;12.81;100.00;98965.94;5042998;28;20088;-58
2022/10/25 04:32:37;;;;;;;4.03;1.50;;;;;;;13.04;100.00;98962.56;5043395;28;20107;-67
2022/10/25 04:35:21;;;;;;;3.50;1.63;;;;;;;12.72;100.00;98971.03;5070183;28;20537;-69
2022/10/25 04:38:06;;;;;;;2.17;1.45;;;;;;;12.53;100.00;98956.66;5044196;28;20571;-66
2022/10/25 04:41:00;;;;;;;9.65;2.15;;;;;;;12.36;100.00;98969.22;5056145;28;20048;-67
2022/10/25 04:43:46;;;;;;;3.40;1.40;;;;;;;12.28;100.00;98972.41;5043500;28;20047;-67
2022/10/25 04:46:31;;;;;;;3.95;1.25;;;;;;;12.34;100.00;98959.78;5052651;28;20051;-67
2022/10/25 04:49:16;;;;;;;8.50;2.28;;;;;;;12.66;100.00;98959.22;5042492;28;20119;-61
2022/10/25 04:52:01;;;;;;;3.60;1.70;;;;;;;12.48;100.00;98962.25;5043270;28;20052;-61
2022/10/25 04:54:45;;;;;;;4.57;1.52;;;;;;;12.38;100.00;98969.97;5041588;28;20124;-61
2022/10/25 04:57:30;;;;;;;3.80;1.67;;;;;;;12.34;100.00;98970.31;5041760;28;20128;-61
2022/10/25 05:00:15;;;;;;;4.75;1.73;;;;;;;12.79;100.00;98965.25;5055480;28;20234;-62
2022/10/25 05:03:01;;;;;;;1.80;0.93;;;;;;;12.65;100.00;98976.75;5047714;28;20413;-61
2022/10/25 05:05:46;;;;;;;2.95;1.13;;;;;;;12.52;100.00;98970.72;5031431;28;20068;-62
2022/10/25 05:08:30;;;;;;;2.47;1.10;;;;;;;12.41;100.00;98974.16;5021500;28;20489;-62
2022/10/25 05:11:19;;;;;;;2.22;1.27;;;;;;;13.34;100.00;98970.81;5020474;28;20136;-62
2022/10/25 05:14:03;;;;;;;2.58;1.38;;;;;;;12.67;100.00;98968.75;5036612;28;20053;-62
2022/10/25 05:16:48;;;;;;;3.30;1.38;;;;;;;12.52;100.00;98978.59;5024224;28;20045;-61
2022/10/25 05:19:32;;;;;;;2.10;1.50;;;;;;;12.37;100.00;98972.72;5024603;28;20371;-62
2022/10/25 05:22:17;;;;;;;3.53;1.20;;;;;;;12.29;100.00;98973.28;5023177;28;20552;-62
2022/10/25 05:25:02;;;;;;;2.65;1.50;;;;;;;12.28;100.00;98979.44;5034477;28;20037;-62
2022/10/25 05:27:46;;;;;;;3.25;1.65;;;;;;;12.37;100.00;98972.72;5023452;28;20081;-62
2022/10/25 05:30:31;;;;;;;6.60;2.42;;;;;;;12.37;100.00;98984.03;5022407;28;20068;-62
2022/10/25 05:33:16;;;;;;;3.58;1.67;;;;;;;12.29;100.00;98971.47;5023701;28;20124;-61
2022/10/25 05:36:02;;;;;;;4.03;1.50;;;;;;;12.41;100.00;98972.38;5022313;28;20381;-62
2022/10/25 05:38:47;;;;;;;2.15;1.30;;;;;;;13.01;100.00;98966.22;5023609;28;20112;-61
2022/10/25 05:41:31;;;;;;;8.90;2.95;;;;;;;13.49;100.00;98966.19;5023971;28;20045;-63
2022/10/25 05:44:16;;;;;;;5.28;1.98;;;;;;;13.73;100.00;98959.97;5023771;28;20136;-61
2022/10/25 05:47:01;;;;;;;5.03;2.17;;;;;;;13.96;100.00;98966.06;5022277;28;21169;-61
2022/10/25 05:49:46;;;;;;;8.00;2.25;;;;;;;14.15;100.00;98970.69;5022735;28;20511;-61
2022/10/25 05:52:30;;;;;;;7.78;3.22;;;;;;;14.29;100.00;98977.50;5022351;28;20156;-61
2022/10/25 05:55:14;;;;;;;7.20;2.85;;;;;;;13.97;100.00;98983.53;5035860;28;20059;-61
2022/10/25 05:57:59;;;;;;;4.07;1.98;;;;;;;13.90;100.00;98988.47;5022186;28;20459;-61
2022/10/25 06:00:43;;;;;;;7.22;1.67;;;;;;;13.79;100.00;98991.91;5023076;28;20467;-60
2022/10/25 06:03:27;;;;;;;4.55;1.50;;;;;;;13.80;100.00;98992.78;5022566;28;20099;-61
2022/10/25 06:06:12;;;;;;;1.25;0.70;;;;;;;12.89;100.00;99004.78;5026450;28;20045;-62
2022/10/25 06:08:58;;;;;;;5.07;0.70;;;;;;;12.48;100.00;99012.16;5027200;28;20048;-60
2022/10/25 06:11:43;;;;;;;1.45;0.80;;;;;;;12.25;100.00;99009.41;5027109;28;21431;-60
2022/10/25 06:14:28;;;;;;;1.55;0.80;;;;;;;12.29;100.00;99012.66;5027233;28;20041;-61
2022/10/25 06:17:13;;;;;;;2.15;0.77;;;;;;;12.52;100.00;99016.25;5027036;28;20051;-62
2022/10/25 06:19:58;;;;;;;2.60;1.00;;;;;;;12.36;100.00;99034.06;5024998;28;20042;-61
2022/10/25 06:22:43;;;;;;;4.15;1.20;;;;;;;12.34;100.00;99028.91;5025307;28;20045;-61
2022/10/25 06:25:27;;;;;;;4.80;1.40;;;;;;;12.22;100.00;99035.06;5024266;28;20045;-62
2022/10/25 06:28:12;;;;;;;2.10;1.17;;;;;;;12.78;100.00;99029.25;5026405;28;20416;-62
2022/10/25 06:31:09;;;;;;;7.30;1.65;;;;;;;13.07;100.00;99041.22;5037794;28;20037;-61
2022/10/25 06:33:54;;;;;;;3.00;1.75;;;;;;;12.92;100.00;99053.72;5026270;28;20044;-62
2022/10/25 06:36:38;;;;;;;6.47;2.30;;;;;;;12.86;100.00;99054.97;5053963;28;20140;-61
2022/10/25 06:39:23;;;;;;;4.72;2.63;;;;;;;12.87;100.00;99067.19;5026491;28;20050;-62
2022/10/25 06:42:08;;;;;;;6.15;2.65;;;;;;;12.53;100.00;99070.47;5026855;28;20045;-60
2022/10/25 06:44:53;;;;;;;4.57;2.30;;;;;;;12.18;100.00;99084.31;5025775;28;20041;-60
2022/10/25 06:47:37;;;;;;;6.15;2.90;;;;;;;13.04;100.00;99081.72;5026387;28;20107;-61
2022/10/25 06:50:23;;;;;;;5.82;2.40;;;;;;;13.29;100.00;99087.78;5024674;28;20492;-61
2022/10/25 06:53:07;;;;;;;5.25;2.42;;;;;;;13.36;100.00;99080.28;5023508;28;20455;-60
2022/10/25 06:55:52;;;;;;;3.67;1.98;;;;;;;13.68;100.00;99097.22;5025880;28;20033;-61
2022/10/25 06:58:37;;;;;;;6.13;2.47;;;;;;;13.53;100.00;99100.06;5027157;28;20033;-62
2022/10/25 07:01:24;;;;;;;4.18;2.72;;;;;;;14.01;100.00;99092.97;5026714;28;20065;-61
2022/10/25 07:04:08;;;;;;;6.93;2.42;;;;;;;14.10;100.00;99099.28;5023103;28;20053;-60
2022/10/25 07:06:53;;;;;;;5.57;2.10;;;;;;;13.81;100.00;99099.75;5052193;28;20033;-61
2022/10/25 07:09:38;;;;;;;4.90;2.25;;;;;;;14.20;100.00;99102.03;5036706;28;20041;-61
2022/10/25 07:12:23;;;;;;;3.40;2.08;;;;;;;14.63;100.00;99092.53;5036444;28;20084;-62
2022/10/25 07:15:08;;;;;;;3.92;1.88;;;;;;;14.05;100.00;99104.09;5024469;28;20045;-62
2022/10/25 07:17:54;;;;;;;3.50;1.48;;;;;;;14.54;100.00;99095.91;5021243;28;20139;-63
2022/10/25 07:20:39;;;;;;;5.93;1.65;;;;;;;14.94;100.00;99099.78;5025968;28;20034;-62
2022/10/25 07:23:23;;;;;;;1.58;1.05;;;;;;;15.35;99.41;99099.97;5024609;28;20592;-61
2022/10/25 07:26:13;;;;;;;2.53;1.40;;;;;;;16.18;98.14;99100.16;5025330;28;20485;-62
2022/10/25 07:28:59;;;;;;;2.38;1.20;;;;;;;17.30;92.68;99106.19;5050106;28;20037;-62
2022/10/25 07:31:44;;;;;;;2.42;1.52;;;;;;;17.34;88.95;99107.59;5025245;28;20073;-63
2022/10/25 07:34:28;;;;;;;4.80;2.30;;;;;;;17.41;88.12;99099.91;5025088;28;20112;-61
2022/10/25 07:37:13;;;;;;;3.67;2.47;;;;;;;17.31;88.07;99097.28;5023887;28;20057;-63
2022/10/25 07:39:57;;;;;;;4.47;1.83;;;;;;;18.09;94.80;99092.75;5025145;28;20045;-58
2022/10/25 07:42:42;;;;;;;3.63;2.13;;;;;;;18.71;81.92;99093.97;5023757;28;20045;-53
2022/10/25 07:45:27;;;;;;;4.03;1.83;;;;;;;18.83;81.12;99091.09;5035158;28;20056;-66
2022/10/25 07:48:11;;;;;;;2.90;1.50;;;;;;;18.83;79.50;99104.38;5017204;28;20175;-65
2022/10/25 07:50:56;;;;;;;1.67;0.82;;;;;;;18.62;76.12;99109.97;5022429;28;20136;-64
2022/10/25 07:53:42;;;;;;;2.20;0.85;;;;;;;18.32;75.97;99097.69;5025924;28;20065;-66
2022/10/25 07:56:29;;;;;;;2.35;0.85;;;;;;;18.52;76.42;99102.06;5021341;28;20049;-65
2022/10/25 07:59:13;;;;;;;3.70;0.75;;;;;;;19.07;72.94;99097.63;5025023;28;20065;-64
2022/10/25 08:01:58;;;;;;;2.45;0.85;;;;;;;18.39;75.52;99100.59;5024285;28;20523;-64
2022/10/25 08:04:43;;;;;;;1.80;0.80;;;;;;;19.07;71.89;99100.28;5024134;28;20042;-64
2022/10/25 08:07:28;;;;;;;0.88;0.52;;;;;;;19.08;69.51;99092.16;5019000;28;20544;-67
2022/10/25 08:10:12;;;;;;;1.50;0.75;;;;;;;19.06;70.69;99095.97;5047172;28;20405;-67
2022/10/25 08:12:57;;;;;;;2.15;0.75;;;;;;;20.25;73.95;99105.41;5021333;28;20120;-65
2022/10/25 08:15:49;;;;;;;1.58;0.60;;;;;;;21.60;65.37;99100.09;5047515;28;20412;-66
2022/10/25 08:18:34;;;;;;;2.10;0.98;;;;;;;20.94;69.60;99093.78;5036519;28;20043;-65
2022/10/25 08:21:18;;;;;;;1.00;0.63;;;;;;;21.60;65.27;99098.28;5048314;28;20165;-64
2022/10/25 08:24:03;;;;;;;1.80;0.70;;;;;;;21.17;66.29;99095.78;5024551;28;20045;-66
2022/10/25 08:26:48;;;;;;;2.03;0.40;;;;;;;21.78;60.97;99098.09;5021120;28;20938;-65
2022/10/25 08:29:32;;;;;;;1.52;0.60;;;;;;;22.00;62.50;99097.53;5020941;28;20057;-65
2022/10/25 08:32:17;;;;;;;1.45;0.63;;;;;;;21.01;60.51;99097.47;5020805;28;20064;-65
2022/10/25 08:35:02;;;;;;;1.85;0.95;;;;;;;21.48;61.14;99099.63;5022584;28;20357;-65
2022/10/25 08:37:46;;;;;;;1.85;0.60;;;;;;;21.00;59.04;99095.81;5014637;28;20479;-65
2022/10/25 08:40:39;;;;;;;1.17;0.60;;;;;;;21.61;57.81;99099.13;5024138;28;20113;-65
2022/10/25 08:43:39;;;;;;;1.13;0.60;;;;;;;20.85;61.06;99100.91;5051068;28;20037;-66
2022/10/25 08:47:20;;;;;;;3.03;0.70;;;;;;;20.24;62.61;99099.25;5022590;28;20197;-65
2022/10/25 08:50:12;;;;;;;3.10;0.43;;;;;;;20.35;62.52;99105.28;5021934;28;20200;-65
2022/10/25 08:53:02;;;;;;;0.77;0.50;;;;;;;21.12;60.41;99108.81;5019021;28;20053;-65
2022/10/25 08:55:47;;;;;;;2.10;0.73;;;;;;;19.99;59.41;99111.56;5022375;28;20060;-65
2022/10/25 08:58:36;;;;;;;0.98;0.73;;;;;;;19.80;60.75;99113.44;5021115;28;20071;-65
2022/10/25 09:01:33;;;;;;;2.15;0.52;;;;;;;20.05;60.85;99111.81;5008480;28;20060;-66
2022/10/25 09:04:20;;;;;;;1.10;0.50;;;;;;;20.99;59.32;99119.94;5021439;28;20058;-66
2022/10/25 09:07:36;;;;;;;1.35;0.40;;;;;;;20.83;60.05;99128.69;5019894;28;20392;-66
2022/10/25 09:10:41;;;;;;;0.90;0.40;;;;;;;20.86;59.09;99125.72;5019253;28;20061;-66
2022/10/25 09:13:44;;;;;;;1.10;0.70;;;;;;;21.57;58.08;99127.09;5021946;28;20124;-64
2022/10/25 09:16:37;;;;;;;1.00;0.60;;;;;;;21.46;58.49;99126.41;5021929;28;20052;-64
2022/10/25 09:19:38;;;;;;;1.30;0.73;;;;;;;21.39;59.25;99126.28;5021920;28;20575;-65
2022/10/25 09:22:26;;;;;;;2.38;0.50;;;;;;;21.81;57.24;99122.75;5005828;28;20181;-64
2022/10/25 09:25:35;;;;;;;2.33;0.40;;;;;;;22.38;55.59;99134.22;5020408;28;20062;-65
2022/10/25 09:28:24;;;;;;;4.07;0.60;;;;;;;22.31;56.74;99143.94;5033872;28;20111;-65
2022/10/25 09:31:15;;;;;;;1.13;0.32;;;;;;;22.18;56.29;99137.31;5013507;28;20707;-66
2022/10/25 09:34:04;;;;;;;1.13;0.70;;;;;;;21.69;58.60;99140.91;5023411;28;20112;-65
2022/10/25 09:36:56;;;;;;;1.42;0.70;;;;;;;21.66;59.12;99142.06;5050789;28;20053;-65
2022/10/25 09:39:53;;;;;;;0.93;0.50;;;;;;;21.92;58.43;99156.22;5025921;28;20049;-65
2022/10/25 09:43:00;;;;;;;2.35;0.63;;;;;;;22.59;56.57;99160.31;5026647;28;20044;-64
2022/10/25 09:45:49;;;;;;;2.08;0.63;;;;;;;21.84;59.90;99147.22;5026686;28;20116;-64
2022/10/25 09:48:46;;;;;;;1.05;0.65;;;;;;;22.41;57.82;99152.56;5026776;28;20044;-64
2022/10/25 09:51:37;;;;;;;1.40;0.52;;;;;;;21.84;58.50;99149.91;5034154;28;20107;-64
2022/10/25 09:54:29;;;;;;;0.75;0.40;;;;;;;22.16;57.03;99155.34;5033198;28;20095;-63
2022/10/25 09:57:14;;;;;;;1.48;0.80;;;;;;;21.21;59.60;99154.91;5024697;28;20156;-66
2022/10/25 09:59:58;;;;;;;1.85;0.57;;;;;;;21.39;59.27;99160.06;5027722;28;20075;-64
2022/10/25 10:02:43;;;;;;;1.02;0.40;;;;;;;22.21;57.84;99147.63;5054547;28;20492;-64
2022/10/25 10:05:29;;;;;;;1.52;0.63;;;;;;;22.63;55.17;99155.50;5026297;28;20064;-65
2022/10/25 10:08:13;;;;;;;1.80;0.40;;;;;;;21.69;56.60;99146.25;5027593;28;20052;-64
2022/10/25 10:10:58;;;;;;;1.17;0.30;;;;;;;22.20;55.36;99159.31;5054011;28;20237;-64
2022/10/25 10:14:07;;;;;;;2.83;0.38;;;;;;;21.83;55.15;99155.41;5026842;28;20037;-65
2022/10/25 10:16:55;;;;;;;0.60;0.30;;;;;;;22.20;54.78;99158.47;5026533;28;20124;-63
2022/10/25 10:19:40;;;;;;;0.88;0.20;;;;;;;22.54;53.08;99165.34;5024544;28;20052;-64
2022/10/25 10:22:25;;;;;;;1.33;0.30;;;;;;;21.78;53.72;99156.75;5027068;28;20120;-66
2022/10/25 10:25:36;;;;;;;0.47;0.30;;;;;;;22.00;55.23;99162.34;5024621;28;20104;-64
2022/10/25 10:28:21;;;;;;;0.38;0.20;;;;;;;22.00;54.01;99165.03;5025249;28;20041;-64
2022/10/25 10:31:07;;;;;;;1.35;0.32;;;;;;;22.92;52.79;99154.00;5027116;28;20072;-64
2022/10/25 10:33:51;;;;;;;2.08;0.20;;;;;;;22.09;52.24;99154.34;5026063;28;20045;-63
2022/10/25 10:36:36;;;;;;;1.33;0.35;;;;;;;22.64;51.27;99143.81;5036814;28;20037;-65
2022/10/25 10:39:22;;;;;;;1.00;0.28;;;;;;;22.67;49.56;99146.13;5024001;28;20136;-64
2022/10/25 10:42:16;;;;;;;1.30;0.20;;;;;;;21.82;51.28;99145.75;5026349;28;20128;-64
2022/10/25 10:45:06;;;;;;;1.23;0.40;;;;;;;21.17;53.64;99151.72;5026083;28;20049;-65
2022/10/25 10:47:51;;;;;;;1.10;0.23;;;;;;;21.76;51.69;99158.72;5052702;28;20045;-64
2022/10/25 10:50:35;;;;;;;2.13;0.40;;;;;;;22.04;52.21;99154.84;5022400;28;20296;-64
2022/10/25 10:53:28;;;;;;;1.20;0.20;;;;;;;21.47;53.74;99157.41;5024503;28;20545;-66
2022/10/25 10:56:22;;;;;;;0.47;0.20;;;;;;;22.23;52.38;99147.47;5038043;28;20048;-64
2022/10/25 10:59:24;;;;;;;3.30;0.40;;;;;;;22.06;51.25;99144.03;5025031;28;20102;-64
2022/10/25 11:02:27;;;;;;;2.58;0.35;;;;;;;21.65;53.58;99145.75;5025953;28;20786;-66
2022/10/25 11:05:36;;;;;;;1.23;0.30;;;;;;;22.38;51.58;99155.56;5021442;28;20049;-65
2022/10/25 11:08:21;;;;;;;1.10;0.30;;;;;;;22.35;51.48;99148.75;5025202;28;20042;-63
2022/10/25 11:11:13;;;;;;;1.95;0.40;;;;;;;22.61;50.35;99161.03;5052666;28;20076;-64
2022/10/25 11:14:00;;;;;;;0.98;0.28;;;;;;;22.34;51.11;99156.94;5010631;28;20049;-67
2022/10/25 11:17:10;;;;;;;2.92;0.28;;;;;;;21.92;51.03;99156.22;5024482;28;20064;-67
2022/10/25 11:20:20;;;;;;;3.25;0.38;;;;;;;22.58;49.76;99158.66;5022657;28;20055;-66
2022/10/25 11:23:07;;;;;;;1.77;0.28;;;;;;;21.94;51.02;99149.72;5023242;28;20045;-68
2022/10/25 11:26:06;;;;;;;1.27;0.30;;;;;;;22.55;49.94;99144.84;5021074;28;20057;-67
2022/10/25 11:29:03;;;;;;;4.13;0.30;;;;;;;22.81;49.42;99146.41;5025343;28;20049;-66
2022/10/25 11:32:13;;;;;;;4.03;0.30;;;;;;;24.14;45.67;99136.44;5024749;28;20048;-66
2022/10/25 11:35:30;;;;;;;1.20;0.20;;;;;;;23.81;46.07;99141.09;5027849;28;20044;-67
2022/10/25 11:38:32;;;;;;;1.63;0.30;;;;;;;23.80;46.00;99134.09;5027810;28;20110;-70
2022/10/25 11:41:22;;;;;;;1.52;0.30;;;;;;;24.22;45.94;99141.72;5042679;28;20099;-70
2022/10/25 11:44:29;;;;;;;2.08;0.22;;;;;;;25.86;43.75;99132.41;5042320;28;20557;-74
2022/10/25 11:47:27;;;;;;;3.13;0.43;;;;;;;24.76;44.36;99136.19;5027153;28;20232;-75
2022/10/25 11:50:21;;;;;;;1.13;0.30;;;;;;;24.27;46.00;99133.13;5045658;28;20143;-75
2022/10/25 11:53:30;;;;;;;1.83;0.32;;;;;;;24.78;45.36;99126.09;5042898;28;20087;-75
2022/10/25 11:56:22;;;;;;;1.52;0.28;;;;;;;24.57;45.45;99133.91;5026711;28;20088;-73
2022/10/25 11:59:25;;;;;;;1.60;0.43;;;;;;;25.39;45.03;99132.88;5040788;28;20066;-74
2022/10/25 12:02:32;;;;;;;0.73;0.20;;;;;;;25.03;44.74;99140.00;5013979;28;20061;-73
2022/10/25 12:05:55;;;;;;;0.77;0.22;;;;;;;24.47;45.17;99126.19;4987926;28;20061;-73
2022/10/25 12:09:21;;;;;;;1.95;0.40;;;;;;;25.23;44.51;99120.59;4984917;28;20071;-74
2022/10/25 12:12:13;;;;;;;1.90;0.50;;;;;;;25.86;41.66;99124.38;4963816;28;20560;-74
2022/10/25 12:15:01;;;;;;;1.00;0.40;;;;;;;26.03;41.26;99130.22;4969059;28;20134;-73
2022/10/25 12:17:51;;;;;;;;;;;;;;;24.33;44.06;99132.38;4968693;28;20099;-69
2022/10/25 12:20:37;;;;;;;0.98;0.20;;;;;;;24.38;45.24;99127.31;4950767;28;19929;-65
2022/10/25 12:23:25;;;;;;;1.02;0.20;;;;;;;25.76;43.23;99124.72;4964036;28;20603;-58
2022/10/25 12:26:20;;;;;;;1.80;0.40;;;;;;;24.78;43.89;99126.91;4952305;28;20046;-71
2022/10/25 12:29:16;;;;;;;1.60;0.30;;;;;;;25.75;42.52;99130.28;4951456;28;20858;-74
2022/10/25 12:32:20;;;;;;;1.02;0.30;;;;;;;24.76;44.13;99123.59;4954590;28;20047;-74
2022/10/25 12:35:19;;;;;;;0.75;0.15;;;;;;;23.33;45.55;99125.31;4970531;28;20058;-67
2022/10/25 12:38:20;;;;;;;1.65;0.20;;;;;;;24.14;45.01;99120.38;4965121;28;20039;-66
2022/10/25 12:41:20;;;;;;;2.97;0.40;;;;;;;25.82;42.06;99123.13;4970893;28;20050;-67
2022/10/25 12:44:31;;;;;;;1.02;0.20;;;;;;;25.88;41.43;99126.84;5023809;28;20791;-66
2022/10/25 12:47:53;;;;;;;1.23;0.28;;;;;;;24.94;43.63;99120.53;5022771;28;20492;-66
2022/10/25 12:50:59;;;;;;;2.20;0.40;;;;;;;24.92;44.71;99125.22;5019301;28;20045;-65
2022/10/25 12:54:22;;;;;;;0.75;0.20;;;;;;;24.88;43.84;99120.41;5022191;28;20131;-66
2022/10/25 12:57:25;;;;;;;1.83;0.50;;;;;;;24.13;44.53;99119.53;5023359;28;20069;-68
2022/10/25 13:00:13;;;;;;;0.20;0.10;;;;;;;22.96;46.65;99122.44;5021100;28;20120;-66
2022/10/25 13:03:25;;;;;;;0.57;0.25;;;;;;;22.61;47.65;99129.00;5024050;28;20100;-66
2022/10/25 13:06:31;;;;;;;0.52;0.30;;;;;;;23.34;45.42;99122.47;5050227;28;20041;-66
2022/10/25 13:09:18;;;;;;;1.25;0.28;;;;;;;23.59;45.79;99126.78;5023461;28;20175;-66
2022/10/25 13:12:06;;;;;;;1.15;0.25;;;;;;;23.39;46.28;99121.94;5034120;28;20050;-67
2022/10/25 13:14:53;;;;;;;1.70;0.20;;;;;;;24.01;45.61;99116.50;5049533;28;20038;-68
2022/10/25 13:17:41;;;;;;;1.83;0.40;;;;;;;23.46;46.59;99112.22;5022982;28;20080;-66